sensor_id;sensor_type;location;lat;lon;timestamp;pressure;altitude;pressure_sealevel;temperature;humidity
7962;BME280;4026;43.652;24.906;2024-03-02T00:00:37;98819.00;;;5.67;100.00
7962;BME280;4026;43.652;24.906;2024-03-02T00:03:04;98813.53;;;5.59;100.00
7962;BME280;4026;43.652;24.906;2024-03-02T00:05:32;98806.66;;;5.61;100.00
7962;BME280;4026;43.652;24.906;2024-03-02T00:07:59;98811.00;;;5.59;100.00
7962;BME280;4026;43.652;24.906;2024-03-02T00:10:28;98813.34;;;5.62;100.00
7962;BME280;4026;43.652;24.906;2024-03-02T00:13:00;98804.81;;;5.63;100.00
7962;BME280;4026;43.652;24.906;2024-03-02T00:15:40;98804.47;;;5.70;100.00
7962;BME280;4026;43.652;24.906;2024-03-02T00:18:10;98808.75;;;5.69;100.00
7962;BME280;4026;43.652;24.906;2024-03-02T00:20:39;98804.47;;;5.70;100.00
7962;BME280;4026;43.652;24.906;2024-03-02T00:23:07;98793.81;;;5.79;100.00
7962;BME280;4026;43.652;24.906;2024-03-02T00:25:39;98792.53;;;5.72;100.00
7962;BME280;4026;43.652;24.906;2024-03-02T00:28:14;98794.91;;;5.75;100.00
7962;BME280;4026;43.652;24.906;2024-03-02T00:30:51;98790.72;;;5.74;100.00
7962;BME280;4026;43.652;24.906;2024-03-02T00:33:19;98788.19;;;5.74;100.00
7962;BME280;4026;43.652;24.906;2024-03-02T00:35:49;98791.63;;;5.73;100.00
7962;BME280;4026;43.652;24.906;2024-03-02T00:38:16;98777.69;;;5.80;100.00
7962;BME280;4026;43.652;24.906;2024-03-02T00:40:43;98778.75;;;5.76;100.00
7962;BME280;4026;43.652;24.906;2024-03-02T00:46:02;98777.66;;;5.65;100.00
7962;BME280;4026;43.652;24.906;2024-03-02T00:48:29;98779.59;;;5.76;100.00
7962;BME280;4026;43.652;24.906;2024-03-02T00:50:58;98779.59;;;5.76;100.00
7962;BME280;4026;43.652;24.906;2024-03-02T00:53:26;98781.41;;;5.74;100.00
7962;BME280;4026;43.652;24.906;2024-03-02T00:55:53;98782.38;;;5.72;100.00
7962;BME280;4026;43.652;24.906;2024-03-02T00:58:19;98773.50;;;5.79;100.00
7962;BME280;4026;43.652;24.906;2024-03-02T01:00:46;98776.88;;;5.79;100.00
7962;BME280;4026;43.652;24.906;2024-03-02T01:03:13;98764.72;;;5.84;100.00
7962;BME280;4026;43.652;24.906;2024-03-02T01:05:41;98762.72;;;5.75;100.00
7962;BME280;4026;43.652;24.906;2024-03-02T01:08:10;98766.91;;;5.76;100.00
7962;BME280;4026;43.652;24.906;2024-03-02T01:10:37;98769.91;;;5.83;100.00
7962;BME280;4026;43.652;24.906;2024-03-02T01:13:04;98772.63;;;5.80;100.00
7962;BME280;4026;43.652;24.906;2024-03-02T01:15:31;98763.91;;;5.70;100.00
7962;BME280;4026;43.652;24.906;2024-03-02T01:17:58;98763.53;;;5.76;100.00
7962;BME280;4026;43.652;24.906;2024-03-02T01:20:25;98748.69;;;5.84;100.00
7962;BME280;4026;43.652;24.906;2024-03-02T01:22:52;98744.72;;;5.80;100.00
7962;BME280;4026;43.652;24.906;2024-03-02T01:25:20;98730.06;;;5.85;100.00
7962;BME280;4026;43.652;24.906;2024-03-02T01:27:47;98736.81;;;5.84;100.00
7962;BME280;4026;43.652;24.906;2024-03-02T01:30:14;98736.47;;;5.76;100.00
7962;BME280;4026;43.652;24.906;2024-03-02T01:32:41;98749.78;;;5.80;100.00
7962;BME280;4026;43.652;24.906;2024-03-02T01:35:08;98761.75;;;5.78;100.00
7962;BME280;4026;43.652;24.906;2024-03-02T01:37:35;98759.94;;;5.80;100.00
7962;BME280;4026;43.652;24.906;2024-03-02T01:40:02;98777.41;;;5.84;100.00
7962;BME280;4026;43.652;24.906;2024-03-02T01:42:35;98774.63;;;5.89;100.00
7962;BME280;4026;43.652;24.906;2024-03-02T01:45:03;98763.84;;;5.85;100.00
7962;BME280;4026;43.652;24.906;2024-03-02T01:47:30;98761.19;;;5.87;100.00
7962;BME280;4026;43.652;24.906;2024-03-02T01:49:58;98742.38;;;5.77;100.00
7962;BME280;4026;43.652;24.906;2024-03-02T01:52:25;98743.91;;;5.79;100.00
7962;BME280;4026;43.652;24.906;2024-03-02T01:54:52;98728.16;;;5.88;100.00
7962;BME280;4026;43.652;24.906;2024-03-02T01:57:19;98731.50;;;5.89;100.00
7962;BME280;4026;43.652;24.906;2024-03-02T01:59:47;98737.47;;;5.88;100.00
7962;BME280;4026;43.652;24.906;2024-03-02T02:02:14;98739.28;;;5.86;100.00
7962;BME280;4026;43.652;24.906;2024-03-02T02:04:41;98735.66;;;5.90;100.00
7962;BME280;4026;43.652;24.906;2024-03-02T02:07:08;98755.94;;;5.90;100.00
7962;BME280;4026;43.652;24.906;2024-03-02T02:09:35;98772.31;;;6.00;100.00
7962;BME280;4026;43.652;24.906;2024-03-02T02:12:02;98765.28;;;5.89;100.00
7962;BME280;4026;43.652;24.906;2024-03-02T02:14:32;98756.34;;;5.98;100.00
7962;BME280;4026;43.652;24.906;2024-03-02T02:17:00;98762.53;;;5.94;100.00
7962;BME280;4026;43.652;24.906;2024-03-02T02:19:27;98751.47;;;5.95;100.00
7962;BME280;4026;43.652;24.906;2024-03-02T02:21:55;98743.47;;;6.01;100.00
7962;BME280;4026;43.652;24.906;2024-03-02T02:24:22;98747.50;;;6.05;100.00
7962;BME280;4026;43.652;24.906;2024-03-02T02:26:49;98751.72;;;6.05;100.00
7962;BME280;4026;43.652;24.906;2024-03-02T02:29:15;98756.72;;;6.06;100.00
7962;BME280;4026;43.652;24.906;2024-03-02T02:31:42;98763.16;;;5.98;100.00
7962;BME280;4026;43.652;24.906;2024-03-02T02:34:09;98769.31;;;5.94;100.00
7962;BME280;4026;43.652;24.906;2024-03-02T02:36:37;98765.50;;;6.01;100.00
7962;BME280;4026;43.652;24.906;2024-03-02T02:39:08;98774.47;;;6.06;100.00
7962;BME280;4026;43.652;24.906;2024-03-02T02:41:36;98771.03;;;6.07;100.00
7962;BME280;4026;43.652;24.906;2024-03-02T02:44:03;98770.84;;;5.96;100.00
7962;BME280;4026;43.652;24.906;2024-03-02T02:46:30;98762.34;;;5.97;100.00
7962;BME280;4026;43.652;24.906;2024-03-02T02:48:57;98769.78;;;6.00;100.00
7962;BME280;4026;43.652;24.906;2024-03-02T02:51:23;98756.34;;;5.98;100.00
7962;BME280;4026;43.652;24.906;2024-03-02T02:53:50;98763.78;;;6.01;100.00
7962;BME280;4026;43.652;24.906;2024-03-02T02:56:19;98771.88;;;6.08;100.00
7962;BME280;4026;43.652;24.906;2024-03-02T02:58:45;98760.44;;;6.01;100.00
7962;BME280;4026;43.652;24.906;2024-03-02T03:01:12;98753.63;;;6.01;100.00
7962;BME280;4026;43.652;24.906;2024-03-02T03:03:39;98763.88;;;6.00;100.00
7962;BME280;4026;43.652;24.906;2024-03-02T03:06:06;98765.06;;;6.08;100.00
7962;BME280;4026;43.652;24.906;2024-03-02T03:08:33;98753.44;;;6.04;100.00
7962;BME280;4026;43.652;24.906;2024-03-02T03:11:00;98758.72;;;6.01;100.00
7962;BME280;4026;43.652;24.906;2024-03-02T03:13:28;98756.00;;;6.04;100.00
7962;BME280;4026;43.652;24.906;2024-03-02T03:15:54;98746.13;;;6.00;100.00
7962;BME280;4026;43.652;24.906;2024-03-02T03:18:21;98750.03;;;6.05;100.00
7962;BME280;4026;43.652;24.906;2024-03-02T03:20:48;98757.72;;;6.04;100.00
7962;BME280;4026;43.652;24.906;2024-03-02T03:23:15;98750.91;;;6.04;100.00
7962;BME280;4026;43.652;24.906;2024-03-02T03:25:42;98745.47;;;5.96;100.00
7962;BME280;4026;43.652;24.906;2024-03-02T03:28:09;98747.31;;;5.94;100.00
7962;BME280;4026;43.652;24.906;2024-03-02T03:30:38;98759.22;;;5.92;100.00
7962;BME280;4026;43.652;24.906;2024-03-02T03:33:05;98742.03;;;5.97;100.00
7962;BME280;4026;43.652;24.906;2024-03-02T03:35:32;98741.69;;;6.03;100.00
7962;BME280;4026;43.652;24.906;2024-03-02T03:38:00;98746.56;;;6.06;100.00
7962;BME280;4026;43.652;24.906;2024-03-02T03:40:27;98750.53;;;5.96;100.00
7962;BME280;4026;43.652;24.906;2024-03-02T03:42:53;98736.78;;;6.00;100.00
7962;BME280;4026;43.652;24.906;2024-03-02T03:45:22;98770.16;;;6.08;100.00
7962;BME280;4026;43.652;24.906;2024-03-02T03:47:53;98756.78;;;5.90;100.00
7962;BME280;4026;43.652;24.906;2024-03-02T03:50:19;98769.72;;;5.86;100.00
7962;BME280;4026;43.652;24.906;2024-03-02T03:52:46;98757.22;;;5.83;100.00
7962;BME280;4026;43.652;24.906;2024-03-02T03:55:13;98774.34;;;5.79;100.00
7962;BME280;4026;43.652;24.906;2024-03-02T03:57:40;98775.53;;;5.88;100.00
7962;BME280;4026;43.652;24.906;2024-03-02T04:00:08;98766.81;;;5.78;100.00
7962;BME280;4026;43.652;24.906;2024-03-02T04:02:36;98764.41;;;5.90;100.00
7962;BME280;4026;43.652;24.906;2024-03-02T04:05:05;98774.34;;;5.79;100.00
7962;BME280;4026;43.652;24.906;2024-03-02T04:07:35;98766.28;;;5.87;100.00
7962;BME280;4026;43.652;24.906;2024-03-02T04:10:09;98773.72;;;5.90;100.00
7962;BME280;4026;43.652;24.906;2024-03-02T04:12:38;98769.16;;;5.81;100.00
7962;BME280;4026;43.652;24.906;2024-03-02T04:15:05;98734.03;;;5.89;100.00
7962;BME280;4026;43.652;24.906;2024-03-02T04:17:33;98781.53;;;6.01;100.00
7962;BME280;4026;43.652;24.906;2024-03-02T04:20:01;98772.00;;;5.90;100.00
7962;BME280;4026;43.652;24.906;2024-03-02T04:22:33;98767.94;;;5.88;100.00
7962;BME280;4026;43.652;24.906;2024-03-02T04:25:00;98738.78;;;5.95;100.00
7962;BME280;4026;43.652;24.906;2024-03-02T04:27:27;98746.94;;;6.00;100.00
7962;BME280;4026;43.652;24.906;2024-03-02T04:29:53;98732.88;;;5.95;100.00
7962;BME280;4026;43.652;24.906;2024-03-02T04:32:20;98752.19;;;5.97;100.00
7962;BME280;4026;43.652;24.906;2024-03-02T04:34:47;98742.03;;;5.97;100.00
7962;BME280;4026;43.652;24.906;2024-03-02T04:37:14;98746.13;;;6.00;100.00
7962;BME280;4026;43.652;24.906;2024-03-02T04:39:42;98769.38;;;5.92;100.00
7962;BME280;4026;43.652;24.906;2024-03-02T04:42:09;98735.47;;;5.79;100.00
7962;BME280;4026;43.652;24.906;2024-03-02T04:44:36;98736.63;;;5.87;100.00
7962;BME280;4026;43.652;24.906;2024-03-02T04:47:03;98751.41;;;5.81;100.00
7962;BME280;4026;43.652;24.906;2024-03-02T04:49:30;98760.28;;;5.74;100.00
7962;BME280;4026;43.652;24.906;2024-03-02T04:51:57;98759.13;;;5.79;100.00
7962;BME280;4026;43.652;24.906;2024-03-02T04:54:24;98747.22;;;5.65;100.00
7962;BME280;4026;43.652;24.906;2024-03-02T04:56:52;98755.22;;;5.74;100.00
7962;BME280;4026;43.652;24.906;2024-03-02T04:59:19;98774.41;;;5.78;100.00
7962;BME280;4026;43.652;24.906;2024-03-02T05:01:46;98741.81;;;5.72;100.00
7962;BME280;4026;43.652;24.906;2024-03-02T05:04:13;98775.78;;;5.83;100.00
7962;BME280;4026;43.652;24.906;2024-03-02T05:06:40;98790.03;;;5.86;100.00
7962;BME280;4026;43.652;24.906;2024-03-02T05:09:07;98774.34;;;5.79;100.00
7962;BME280;4026;43.652;24.906;2024-03-02T05:11:34;98772.69;;;5.78;100.00
7962;BME280;4026;43.652;24.906;2024-03-02T05:14:37;98817.25;;;5.68;100.00
7962;BME280;4026;43.652;24.906;2024-03-02T05:17:04;98800.88;;;5.74;100.00
7962;BME280;4026;43.652;24.906;2024-03-02T05:19:31;98810.28;;;5.72;100.00
7962;BME280;4026;43.652;24.906;2024-03-02T05:21:57;98790.56;;;5.77;100.00
7962;BME280;4026;43.652;24.906;2024-03-02T05:24:24;98799.06;;;5.76;100.00
7962;BME280;4026;43.652;24.906;2024-03-02T05:26:53;98809.34;;;5.88;100.00
7962;BME280;4026;43.652;24.906;2024-03-02T05:29:20;98802.72;;;5.86;100.00
7962;BME280;4026;43.652;24.906;2024-03-02T05:31:48;98822.81;;;5.89;100.00
7962;BME280;4026;43.652;24.906;2024-03-02T05:34:15;98829.50;;;5.76;100.00
7962;BME280;4026;43.652;24.906;2024-03-02T05:36:42;98825.97;;;5.78;100.00
7962;BME280;4026;43.652;24.906;2024-03-02T05:39:08;98832.97;;;5.89;100.00
7962;BME280;4026;43.652;24.906;2024-03-02T05:41:35;98816.13;;;5.88;100.00
7962;BME280;4026;43.652;24.906;2024-03-02T05:44:03;98823.75;;;5.88;100.00
7962;BME280;4026;43.652;24.906;2024-03-02T05:46:30;98823.56;;;5.91;100.00
7962;BME280;4026;43.652;24.906;2024-03-02T05:48:59;98820.78;;;5.96;100.00
7962;BME280;4026;43.652;24.906;2024-03-02T05:51:26;98829.19;;;5.96;100.00
7962;BME280;4026;43.652;24.906;2024-03-02T05:53:53;98820.13;;;5.92;100.00
7962;BME280;4026;43.652;24.906;2024-03-02T05:56:19;98809.63;;;5.98;100.00
7962;BME280;4026;43.652;24.906;2024-03-02T05:58:46;98828.81;;;5.88;100.00
7962;BME280;4026;43.652;24.906;2024-03-02T06:01:23;98832.75;;;5.94;100.00
7962;BME280;4026;43.652;24.906;2024-03-02T06:03:54;98835.19;;;5.95;100.00
7962;BME280;4026;43.652;24.906;2024-03-02T06:06:23;98840.72;;;6.02;100.00
7962;BME280;4026;43.652;24.906;2024-03-02T06:08:50;98822.16;;;6.01;100.00
7962;BME280;4026;43.652;24.906;2024-03-02T06:11:17;98811.13;;;6.02;100.00
7962;BME280;4026;43.652;24.906;2024-03-02T06:13:43;98825.63;;;6.15;100.00
7962;BME280;4026;43.652;24.906;2024-03-02T06:16:10;98838.69;;;6.23;100.00
7962;BME280;4026;43.652;24.906;2024-03-02T06:18:37;98830.25;;;6.08;100.00
7962;BME280;4026;43.652;24.906;2024-03-02T06:21:04;98822.88;;;6.03;100.00
7962;BME280;4026;43.652;24.906;2024-03-02T06:23:32;98815.38;;;6.16;100.00
7962;BME280;4026;43.652;24.906;2024-03-02T06:26:00;98825.59;;;6.00;100.00
7962;BME280;4026;43.652;24.906;2024-03-02T06:28:27;98817.09;;;6.16;100.00
7962;BME280;4026;43.652;24.906;2024-03-02T06:30:54;98843.56;;;6.11;100.00
7962;BME280;4026;43.652;24.906;2024-03-02T06:33:20;98846.28;;;6.08;100.00
7962;BME280;4026;43.652;24.906;2024-03-02T06:35:47;98830.25;;;6.08;100.00
7962;BME280;4026;43.652;24.906;2024-03-02T06:38:14;98824.44;;;6.06;100.00
7962;BME280;4026;43.652;24.906;2024-03-02T06:40:42;98837.94;;;6.06;100.00
7962;BME280;4026;43.652;24.906;2024-03-02T06:43:09;98813.81;;;6.13;100.00
7962;BME280;4026;43.652;24.906;2024-03-02T06:45:36;98824.34;;;6.22;100.00
7962;BME280;4026;43.652;24.906;2024-03-02T06:48:03;98824.69;;;6.16;100.00
7962;BME280;4026;43.652;24.906;2024-03-02T06:50:30;98858.34;;;6.19;100.00
7962;BME280;4026;43.652;24.906;2024-03-02T06:52:57;98819.81;;;6.12;100.00
7962;BME280;4026;43.652;24.906;2024-03-02T06:55:24;98836.22;;;6.21;100.00
7962;BME280;4026;43.652;24.906;2024-03-02T06:57:52;98820.53;;;6.15;100.00
7962;BME280;4026;43.652;24.906;2024-03-02T07:00:19;98813.63;;;6.17;100.00
7962;BME280;4026;43.652;24.906;2024-03-02T07:02:46;98806.31;;;6.26;100.00
7962;BME280;4026;43.652;24.906;2024-03-02T07:05:13;98829.25;;;6.25;100.00
7962;BME280;4026;43.652;24.906;2024-03-02T07:07:40;98818.72;;;6.17;100.00
7962;BME280;4026;43.652;24.906;2024-03-02T07:10:07;98833.44;;;6.26;100.00
7962;BME280;4026;43.652;24.906;2024-03-02T07:12:34;98854.09;;;6.20;100.00
7962;BME280;4026;43.652;24.906;2024-03-02T07:15:03;98809.91;;;6.22;100.00
7962;BME280;4026;43.652;24.906;2024-03-02T07:17:55;98811.84;;;6.33;100.00
7962;BME280;4026;43.652;24.906;2024-03-02T07:20:22;98822.53;;;6.38;100.00
7962;BME280;4026;43.652;24.906;2024-03-02T07:22:48;98821.19;;;6.47;100.00
7962;BME280;4026;43.652;24.906;2024-03-02T07:25:15;98811.84;;;6.47;100.00
7962;BME280;4026;43.652;24.906;2024-03-02T07:27:42;98806.75;;;6.47;100.00
7962;BME280;4026;43.652;24.906;2024-03-02T07:30:13;98828.88;;;6.45;100.00
7962;BME280;4026;43.652;24.906;2024-03-02T07:32:41;98860.63;;;6.52;100.00
7962;BME280;4026;43.652;24.906;2024-03-02T07:35:11;98837.16;;;6.49;100.00
7962;BME280;4026;43.652;24.906;2024-03-02T07:37:38;98866.53;;;6.53;100.00
7962;BME280;4026;43.652;24.906;2024-03-02T07:40:06;98840.13;;;6.41;100.00
7962;BME280;4026;43.652;24.906;2024-03-02T07:42:37;98853.09;;;6.51;100.00
7962;BME280;4026;43.652;24.906;2024-03-02T07:45:05;98856.91;;;6.44;100.00
7962;BME280;4026;43.652;24.906;2024-03-02T07:47:34;98857.72;;;6.44;100.00
7962;BME280;4026;43.652;24.906;2024-03-02T07:50:01;98865.09;;;6.49;100.00
7962;BME280;4026;43.652;24.906;2024-03-02T07:52:28;98853.91;;;6.51;100.00
7962;BME280;4026;43.652;24.906;2024-03-02T07:54:55;98866.72;;;6.50;100.00
7962;BME280;4026;43.652;24.906;2024-03-02T07:57:22;98854.81;;;6.50;100.00
7962;BME280;4026;43.652;24.906;2024-03-02T07:59:49;98867.88;;;6.73;100.00
7962;BME280;4026;43.652;24.906;2024-03-02T08:02:16;98845.59;;;6.64;100.00
7962;BME280;4026;43.652;24.906;2024-03-02T08:04:44;98860.16;;;6.74;100.00
7962;BME280;4026;43.652;24.906;2024-03-02T08:07:12;98865.16;;;6.76;100.00
7962;BME280;4026;43.652;24.906;2024-03-02T08:09:39;98856.06;;;6.72;100.00
7962;BME280;4026;43.652;24.906;2024-03-02T08:12:06;98865.72;;;6.81;100.00
7962;BME280;4026;43.652;24.906;2024-03-02T08:14:34;98873.84;;;6.86;100.00
7962;BME280;4026;43.652;24.906;2024-03-02T08:17:00;98866.34;;;6.85;100.00
7962;BME280;4026;43.652;24.906;2024-03-02T08:19:28;98861.34;;;6.69;100.00
7962;BME280;4026;43.652;24.906;2024-03-02T08:21:57;98829.94;;;6.84;100.00
7962;BME280;4026;43.652;24.906;2024-03-02T08:24:24;98814.13;;;6.93;100.00
7962;BME280;4026;43.652;24.906;2024-03-02T08:26:51;98823.53;;;7.06;100.00
7962;BME280;4026;43.652;24.906;2024-03-02T08:29:18;98841.88;;;7.11;100.00
7962;BME280;4026;43.652;24.906;2024-03-02T08:31:45;98851.47;;;7.20;100.00
7962;BME280;4026;43.652;24.906;2024-03-02T08:34:12;98848.50;;;7.13;100.00
7962;BME280;4026;43.652;24.906;2024-03-02T08:36:38;98858.16;;;7.21;100.00
7962;BME280;4026;43.652;24.906;2024-03-02T08:39:07;98856.75;;;7.17;100.00
7962;BME280;4026;43.652;24.906;2024-03-02T08:41:41;98824.03;;;7.25;100.00
7962;BME280;4026;43.652;24.906;2024-03-02T08:44:08;98881.78;;;7.23;100.00
7962;BME280;4026;43.652;24.906;2024-03-02T08:46:35;98876.63;;;7.24;100.00
7962;BME280;4026;43.652;24.906;2024-03-02T08:49:03;98914.13;;;7.07;100.00
7962;BME280;4026;43.652;24.906;2024-03-02T08:51:29;98891.44;;;7.03;100.00
7962;BME280;4026;43.652;24.906;2024-03-02T08:53:57;98900.53;;;7.08;100.00
7962;BME280;4026;43.652;24.906;2024-03-02T08:56:25;98897.28;;;6.91;100.00
7962;BME280;4026;43.652;24.906;2024-03-02T08:58:52;98885.47;;;7.05;100.00
7962;BME280;4026;43.652;24.906;2024-03-02T09:01:19;98884.72;;;7.17;100.00
7962;BME280;4026;43.652;24.906;2024-03-02T09:03:46;98876.75;;;7.36;100.00
7962;BME280;4026;43.652;24.906;2024-03-02T09:06:14;98874.16;;;7.50;100.00
7962;BME280;4026;43.652;24.906;2024-03-02T09:08:43;98868.78;;;7.55;100.00
7962;BME280;4026;43.652;24.906;2024-03-02T09:11:10;98865.44;;;7.67;100.00
7962;BME280;4026;43.652;24.906;2024-03-02T09:13:39;98872.34;;;7.65;100.00
7962;BME280;4026;43.652;24.906;2024-03-02T09:16:06;98872.75;;;7.59;100.00
7962;BME280;4026;43.652;24.906;2024-03-02T09:18:36;98870.78;;;7.77;100.00
7962;BME280;4026;43.652;24.906;2024-03-02T09:21:03;98878.97;;;7.94;100.00
7962;BME280;4026;43.652;24.906;2024-03-02T09:23:31;98890.16;;;8.05;100.00
7962;BME280;4026;43.652;24.906;2024-03-02T09:25:57;98887.50;;;7.93;100.00
7962;BME280;4026;43.652;24.906;2024-03-02T09:28:24;98895.38;;;8.03;100.00
7962;BME280;4026;43.652;24.906;2024-03-02T09:30:52;98898.41;;;7.96;100.00
7962;BME280;4026;43.652;24.906;2024-03-02T09:33:19;98894.03;;;7.98;100.00
7962;BME280;4026;43.652;24.906;2024-03-02T09:35:46;98895.47;;;8.02;100.00
7962;BME280;4026;43.652;24.906;2024-03-02T09:38:14;98893.25;;;8.10;100.00
7962;BME280;4026;43.652;24.906;2024-03-02T09:40:41;98887.75;;;8.16;100.00
7962;BME280;4026;43.652;24.906;2024-03-02T09:43:09;98871.34;;;8.20;100.00
7962;BME280;4026;43.652;24.906;2024-03-02T09:45:36;98872.88;;;8.23;100.00
7962;BME280;4026;43.652;24.906;2024-03-02T09:48:05;98876.75;;;8.28;100.00
7962;BME280;4026;43.652;24.906;2024-03-02T09:50:32;98890.19;;;8.30;100.00
7962;BME280;4026;43.652;24.906;2024-03-02T09:52:59;98872.72;;;8.38;100.00
7962;BME280;4026;43.652;24.906;2024-03-02T09:55:26;98876.13;;;8.37;100.00
7962;BME280;4026;43.652;24.906;2024-03-02T09:57:53;98886.38;;;8.50;100.00
7962;BME280;4026;43.652;24.906;2024-03-02T10:00:20;98891.47;;;8.50;100.00
7962;BME280;4026;43.652;24.906;2024-03-02T10:02:47;98896.34;;;8.66;100.00
7962;BME280;4026;43.652;24.906;2024-03-02T10:05:24;98898.41;;;8.61;100.00
7962;BME280;4026;43.652;24.906;2024-03-02T10:07:59;98880.25;;;8.53;100.00
7962;BME280;4026;43.652;24.906;2024-03-02T10:10:34;98885.66;;;8.61;100.00
7962;BME280;4026;43.652;24.906;2024-03-02T10:13:05;98887.19;;;8.51;100.00
7962;BME280;4026;43.652;24.906;2024-03-02T10:15:32;98889.09;;;8.60;100.00
7962;BME280;4026;43.652;24.906;2024-03-02T10:17:59;98891.03;;;8.69;100.00
7962;BME280;4026;43.652;24.906;2024-03-02T10:20:27;98880.84;;;8.69;100.00
7962;BME280;4026;43.652;24.906;2024-03-02T10:22:55;98882.75;;;8.78;100.00
7962;BME280;4026;43.652;24.906;2024-03-02T10:25:30;98875.72;;;8.69;100.00
7962;BME280;4026;43.652;24.906;2024-03-02T10:27:58;98867.19;;;8.70;100.00
7962;BME280;4026;43.652;24.906;2024-03-02T10:30:25;98871.88;;;8.64;100.00
7962;BME280;4026;43.652;24.906;2024-03-02T10:32:53;98881.25;;;8.76;100.00
7962;BME280;4026;43.652;24.906;2024-03-02T10:35:20;98875.53;;;8.72;100.00
7962;BME280;4026;43.652;24.906;2024-03-02T10:37:50;98874.53;;;8.62;100.00
7962;BME280;4026;43.652;24.906;2024-03-02T10:40:18;98866.16;;;8.73;100.00
7962;BME280;4026;43.652;24.906;2024-03-02T10:42:45;98868.09;;;8.82;100.00
7962;BME280;4026;43.652;24.906;2024-03-02T10:45:12;98863.88;;;8.94;100.00
7962;BME280;4026;43.652;24.906;2024-03-02T10:47:41;98872.22;;;8.96;100.00
7962;BME280;4026;43.652;24.906;2024-03-02T10:50:09;98876.91;;;9.02;100.00
7962;BME280;4026;43.652;24.906;2024-03-02T10:52:36;98870.97;;;9.14;100.00
7962;BME280;4026;43.652;24.906;2024-03-02T10:55:06;98870.97;;;9.14;100.00
7962;BME280;4026;43.652;24.906;2024-03-02T10:57:41;98868.91;;;9.19;100.00
7962;BME280;4026;43.652;24.906;2024-03-02T11:00:12;98858.50;;;9.22;100.00
7962;BME280;4026;43.652;24.906;2024-03-02T11:02:42;98842.47;;;9.20;100.00
7962;BME280;4026;43.652;24.906;2024-03-02T11:05:18;98850.88;;;9.34;100.00
7962;BME280;4026;43.652;24.906;2024-03-02T11:07:46;98857.19;;;9.41;100.00
7962;BME280;4026;43.652;24.906;2024-03-02T11:10:14;98851.31;;;9.51;100.00
7962;BME280;4026;43.652;24.906;2024-03-02T11:12:48;98847.72;;;9.54;100.00
7962;BME280;4026;43.652;24.906;2024-03-02T11:15:20;98853.25;;;9.48;100.00
7962;BME280;4026;43.652;24.906;2024-03-02T11:17:51;98856.97;;;9.44;100.00
7962;BME280;4026;43.652;24.906;2024-03-02T11:20:18;98845.28;;;9.52;100.00
7962;BME280;4026;43.652;24.906;2024-03-02T11:22:45;98833.44;;;9.51;100.00
7962;BME280;4026;43.652;24.906;2024-03-02T11:25:24;98837.09;;;9.60;100.00
7962;BME280;4026;43.652;24.906;2024-03-02T11:28:02;98835.91;;;9.64;100.00
7962;BME280;4026;43.652;24.906;2024-03-02T11:30:51;98840.25;;;9.75;100.00
7962;BME280;4026;43.652;24.906;2024-03-02T11:33:25;98835.41;;;9.83;100.00
7962;BME280;4026;43.652;24.906;2024-03-02T11:35:52;98843.94;;;9.71;100.00
7962;BME280;4026;43.652;24.906;2024-03-02T11:38:19;98841.09;;;9.87;100.00
7962;BME280;4026;43.652;24.906;2024-03-02T11:40:48;98846.69;;;10.03;100.00
7962;BME280;4026;43.652;24.906;2024-03-02T11:43:15;98843.47;;;10.12;100.00
7962;BME280;4026;43.652;24.906;2024-03-02T11:45:43;98835.56;;;10.04;100.00
7962;BME280;4026;43.652;24.906;2024-03-02T11:48:11;98841.75;;;10.13;100.00
7962;BME280;4026;43.652;24.906;2024-03-02T11:50:41;98847.53;;;10.15;100.00
7962;BME280;4026;43.652;24.906;2024-03-02T11:53:09;98855.31;;;10.13;100.00
7962;BME280;4026;43.652;24.906;2024-03-02T11:55:39;98862.00;;;10.27;100.00
7962;BME280;4026;43.652;24.906;2024-03-02T11:58:08;98871.81;;;10.20;100.00
7962;BME280;4026;43.652;24.906;2024-03-02T12:00:35;98875.53;;;10.16;100.00
7962;BME280;4026;43.652;24.906;2024-03-02T12:03:04;98853.81;;;10.22;100.00
7962;BME280;4026;43.652;24.906;2024-03-02T12:05:32;98858.16;;;10.44;100.00
7962;BME280;4026;43.652;24.906;2024-03-02T12:08:01;98853.97;;;10.32;100.00
7962;BME280;4026;43.652;24.906;2024-03-02T12:10:30;98851.88;;;10.37;100.00
7962;BME280;4026;43.652;24.906;2024-03-02T12:12:57;98854.56;;;10.58;100.00
7962;BME280;4026;43.652;24.906;2024-03-02T12:15:26;98854.22;;;10.62;100.00
7962;BME280;4026;43.652;24.906;2024-03-02T12:17:54;98854.47;;;10.71;100.00
7962;BME280;4026;43.652;24.906;2024-03-02T12:20:21;98852.34;;;10.76;100.00
7962;BME280;4026;43.652;24.906;2024-03-02T12:22:49;98858.97;;;10.90;100.00
7962;BME280;4026;43.652;24.906;2024-03-02T12:25:17;98851.53;;;10.86;100.00
7962;BME280;4026;43.652;24.906;2024-03-02T12:27:45;98849.75;;;10.98;100.00
7962;BME280;4026;43.652;24.906;2024-03-02T12:30:12;98841.03;;;11.01;100.00
7962;BME280;4026;43.652;24.906;2024-03-02T12:32:41;98857.41;;;11.09;100.00
7962;BME280;4026;43.652;24.906;2024-03-02T12:35:09;98864.16;;;11.10;100.00
7962;BME280;4026;43.652;24.906;2024-03-02T12:37:42;98876.41;;;10.84;100.00
7962;BME280;4026;43.652;24.906;2024-03-02T12:40:10;98882.34;;;10.74;100.00
7962;BME280;4026;43.652;24.906;2024-03-02T12:42:38;98864.53;;;10.83;100.00
7962;BME280;4026;43.652;24.906;2024-03-02T12:45:05;98864.41;;;10.96;100.00
7962;BME280;4026;43.652;24.906;2024-03-02T12:47:33;98866.94;;;11.07;100.00
7962;BME280;4026;43.652;24.906;2024-03-02T12:50:02;98871.81;;;11.22;100.00
7962;BME280;4026;43.652;24.906;2024-03-02T12:52:30;98865.41;;;11.27;100.00
7962;BME280;4026;43.652;24.906;2024-03-02T12:54:58;98866.47;;;11.14;100.00
7962;BME280;4026;43.652;24.906;2024-03-02T12:57:26;98869.00;;;11.25;100.00
7962;BME280;4026;43.652;24.906;2024-03-02T12:59:57;98858.28;;;11.31;100.00
7962;BME280;4026;43.652;24.906;2024-03-02T13:02:27;98864.81;;;11.35;100.00
7962;BME280;4026;43.652;24.906;2024-03-02T13:04:55;98868.72;;;11.39;100.00
7962;BME280;4026;43.652;24.906;2024-03-02T13:07:24;98862.84;;;11.27;100.00
7962;BME280;4026;43.652;24.906;2024-03-02T13:09:52;98862.00;;;11.38;100.00
7962;BME280;4026;43.652;24.906;2024-03-02T13:12:20;98869.13;;;11.35;100.00
7962;BME280;4026;43.652;24.906;2024-03-02T13:14:48;98874.78;;;11.38;100.00
7962;BME280;4026;43.652;24.906;2024-03-02T13:17:15;98877.81;;;11.43;100.00